createdAt,value
2017-10-28T00:02:14.451Z,97.16
2017-10-28T00:04:41.981Z,97.26
2017-10-28T00:07:09.481Z,96.73
2017-10-28T00:09:36.964Z,97.00
2017-10-28T00:12:04.461Z,97.35
2017-10-28T00:14:31.958Z,97.45
2017-10-28T00:16:59.465Z,98.06
2017-10-28T00:19:26.967Z,98.11
2017-10-28T00:21:54.478Z,98.42
2017-10-28T00:24:21.959Z,97.88
2017-10-28T00:26:49.458Z,97.22
2017-10-28T00:29:16.953Z,96.20
2017-10-28T00:31:50.120Z,96.21
2017-10-28T00:34:23.172Z,96.85
2017-10-28T00:36:50.676Z,96.44
2017-10-28T00:39:18.161Z,96.70
2017-10-28T00:41:45.655Z,97.08
2017-10-28T00:44:13.156Z,97.15
2017-10-28T00:46:40.656Z,96.84
2017-10-28T00:49:08.146Z,97.27
2017-10-28T00:51:35.638Z,97.11
2017-10-28T00:54:03.133Z,97.00
2017-10-28T00:56:30.631Z,96.84
2017-10-28T00:58:58.119Z,96.88
2017-10-28T01:01:25.618Z,96.70
2017-10-28T01:03:53.111Z,96.20
2017-10-28T01:06:20.616Z,96.88
2017-10-28T01:08:48.117Z,96.49
2017-10-28T01:11:15.621Z,95.82
2017-10-28T01:13:43.140Z,95.54
2017-10-28T01:16:10.630Z,95.39
2017-10-28T01:18:38.125Z,95.41
2017-10-28T01:21:05.629Z,95.93
2017-10-28T01:23:33.111Z,96.22
2017-10-28T01:26:00.603Z,96.29
2017-10-28T01:28:28.108Z,96.67
2017-10-28T01:30:55.611Z,96.94
2017-10-28T01:33:23.110Z,97.09
2017-10-28T01:35:50.599Z,96.61
2017-10-28T01:38:18.112Z,95.30
2017-10-28T01:40:45.631Z,95.01
2017-10-28T01:43:13.118Z,95.90
2017-10-28T01:45:40.610Z,95.96
2017-10-28T01:48:08.118Z,96.40
2017-10-28T01:50:35.615Z,96.40
2017-10-28T01:53:03.109Z,95.91
2017-10-28T01:55:30.612Z,95.63
2017-10-28T01:57:58.102Z,95.02
2017-10-28T02:00:25.603Z,95.25
2017-10-28T02:02:53.097Z,94.79
2017-10-28T02:05:20.596Z,93.89
2017-10-28T02:07:48.082Z,94.64
2017-10-28T02:10:15.660Z,95.11
2017-10-28T02:12:43.145Z,93.52
2017-10-28T02:15:10.646Z,93.76
2017-10-28T02:17:38.150Z,94.58
2017-10-28T02:20:05.651Z,93.98
2017-10-28T02:22:33.146Z,93.24
2017-10-28T02:25:00.642Z,92.86
2017-10-28T02:27:28.134Z,94.01
2017-10-28T02:29:55.629Z,94.59
2017-10-28T02:32:23.143Z,94.68
2017-10-28T02:34:50.638Z,93.85
2017-10-28T02:37:18.148Z,92.28
2017-10-28T02:39:45.664Z,91.34
2017-10-28T02:42:13.186Z,93.19
2017-10-28T02:44:40.682Z,94.22
2017-10-28T02:47:08.182Z,93.91
2017-10-28T02:49:35.674Z,93.38
2017-10-28T02:52:03.160Z,93.22
2017-10-28T02:54:30.654Z,93.11
2017-10-28T02:56:58.153Z,93.38
2017-10-28T02:59:25.659Z,94.01
2017-10-28T03:01:53.170Z,95.23
2017-10-28T03:04:20.669Z,94.79
2017-10-28T03:06:48.165Z,95.73
2017-10-28T03:09:15.650Z,96.32
2017-10-28T03:11:43.140Z,96.95
2017-10-28T03:14:10.709Z,97.33
2017-10-28T03:16:38.218Z,97.62
2017-10-28T03:19:05.708Z,97.56
2017-10-28T03:21:33.209Z,97.06
2017-10-28T03:24:00.717Z,97.17
2017-10-28T03:26:28.206Z,97.49
2017-10-28T03:28:55.703Z,98.04
2017-10-28T03:31:23.213Z,98.67
2017-10-28T03:33:50.714Z,98.47
2017-10-28T03:36:18.217Z,98.40
2017-10-28T03:38:45.725Z,97.52
2017-10-28T03:41:13.230Z,98.09
2017-10-28T03:43:40.843Z,98.04
2017-10-28T03:46:08.335Z,97.89
2017-10-28T03:48:35.842Z,98.39
2017-10-28T03:51:03.335Z,98.66
2017-10-28T03:53:30.831Z,98.53
2017-10-28T03:55:58.338Z,98.60
2017-10-28T03:58:25.830Z,98.20
2017-10-28T04:00:53.329Z,98.79
2017-10-28T04:03:20.831Z,99.21
2017-10-28T04:05:48.331Z,99.07
2017-10-28T04:08:15.829Z,98.75
2017-10-28T04:10:43.321Z,99.00
2017-10-28T04:13:10.818Z,98.77
2017-10-28T04:15:38.313Z,98.75
2017-10-28T04:18:05.809Z,98.42
2017-10-28T04:20:33.315Z,97.41
2017-10-28T04:23:00.801Z,97.08
2017-10-28T04:25:28.310Z,97.69
2017-10-28T04:27:55.815Z,97.79
2017-10-28T04:30:23.327Z,98.00
2017-10-28T04:32:50.838Z,98.17
2017-10-28T04:35:18.323Z,97.12
2017-10-28T04:37:45.822Z,96.17
2017-10-28T04:40:13.312Z,96.58
2017-10-28T04:42:40.808Z,97.29
2017-10-28T04:45:08.302Z,98.17
2017-10-28T04:47:35.797Z,98.69
2017-10-28T04:50:03.314Z,98.56
2017-10-28T04:52:30.831Z,98.37
2017-10-28T04:54:58.330Z,98.66
2017-10-28T04:57:25.836Z,98.82
2017-10-28T04:59:53.323Z,98.58
2017-10-28T05:02:20.822Z,98.55
2017-10-28T05:04:48.327Z,98.42
2017-10-28T05:07:15.812Z,98.76
2017-10-28T05:09:43.326Z,99.18
2017-10-28T05:12:10.823Z,99.71
2017-10-28T05:14:38.325Z,99.14
2017-10-28T05:17:05.835Z,97.94
2017-10-28T05:19:33.447Z,98.04
2017-10-28T05:22:00.963Z,97.90
2017-10-28T05:24:28.448Z,98.30
2017-10-28T05:26:55.945Z,98.09
2017-10-28T05:29:23.438Z,97.25
2017-10-28T05:31:50.954Z,97.20
2017-10-28T05:34:18.489Z,97.06
2017-10-28T05:36:45.990Z,97.69
2017-10-28T05:39:13.511Z,97.92
2017-10-28T05:41:41.066Z,98.61
2017-10-28T05:44:08.566Z,98.89
2017-10-28T05:46:36.067Z,99.38
2017-10-28T05:49:03.603Z,99.65
2017-10-28T05:51:31.118Z,98.82
2017-10-28T05:53:58.626Z,98.30
2017-10-28T05:56:26.223Z,97.59
2017-10-28T05:58:53.718Z,97.92
2017-10-28T06:01:21.211Z,98.20
2017-10-28T06:03:48.695Z,98.36
2017-10-28T06:06:16.199Z,98.39
2017-10-28T06:08:43.693Z,98.93
2017-10-28T06:11:11.266Z,98.50
2017-10-28T06:13:38.815Z,97.81
2017-10-28T06:16:06.305Z,97.11
2017-10-28T06:18:33.814Z,97.41
2017-10-28T06:21:01.310Z,97.21
2017-10-28T06:23:28.805Z,97.00
2017-10-28T06:25:56.317Z,96.57
2017-10-28T06:28:23.805Z,96.31
2017-10-28T06:30:51.301Z,94.31
2017-10-28T06:33:18.810Z,94.06
2017-10-28T06:35:46.306Z,93.84
2017-10-28T06:38:13.809Z,94.32
2017-10-28T06:40:41.352Z,93.90
2017-10-28T06:43:08.839Z,94.25
2017-10-28T06:45:36.374Z,93.99
2017-10-28T06:48:03.890Z,94.28
2017-10-28T06:50:31.395Z,93.99
2017-10-28T06:52:58.903Z,93.29
2017-10-28T06:55:26.402Z,91.71
2017-10-28T06:57:53.881Z,91.38
2017-10-28T07:00:21.373Z,92.14
2017-10-28T07:02:48.884Z,91.72
2017-10-28T07:05:16.375Z,91.57
2017-10-28T07:07:43.861Z,91.82
2017-10-28T07:10:11.363Z,91.94
2017-10-28T07:12:38.854Z,91.84
2017-10-28T07:15:06.363Z,91.22
2017-10-28T07:17:33.875Z,91.58
2017-10-28T07:20:01.374Z,91.62
2017-10-28T07:22:28.865Z,91.00
2017-10-28T07:24:56.375Z,90.51
2017-10-28T07:27:23.868Z,89.85
2017-10-28T07:29:51.359Z,87.87
2017-10-28T07:32:18.855Z,86.57
2017-10-28T07:34:46.378Z,85.33
2017-10-28T07:37:13.883Z,84.75
2017-10-28T07:39:41.387Z,85.14
2017-10-28T07:42:08.909Z,85.32
2017-10-28T07:44:36.413Z,84.51
2017-10-28T07:47:03.899Z,83.86
2017-10-28T07:49:31.395Z,83.60
2017-10-28T07:51:58.907Z,84.15
2017-10-28T07:54:26.475Z,83.70
2017-10-28T07:56:53.979Z,83.21
2017-10-28T07:59:21.592Z,83.53
2017-10-28T08:01:49.102Z,83.20
2017-10-28T08:04:21.608Z,82.38
2017-10-28T08:06:49.122Z,80.45
2017-10-28T08:09:16.640Z,82.05
2017-10-28T08:11:44.145Z,77.74
2017-10-28T08:14:11.641Z,77.20
2017-10-28T08:16:39.145Z,78.37
2017-10-28T08:19:06.634Z,76.62
2017-10-28T08:21:34.163Z,75.71
2017-10-28T08:24:01.668Z,73.41
2017-10-28T08:26:29.187Z,66.26
2017-10-28T08:28:56.719Z,66.47
2017-10-28T08:31:24.238Z,67.21
2017-10-28T08:33:51.756Z,70.74
2017-10-28T08:36:19.281Z,72.95
2017-10-28T08:38:46.802Z,73.38
2017-10-28T08:41:14.308Z,73.68
2017-10-28T08:43:41.811Z,74.65
2017-10-28T08:46:09.321Z,75.69
2017-10-28T08:48:36.806Z,76.52
2017-10-28T08:51:04.340Z,76.53
2017-10-28T08:53:31.851Z,75.13
2017-10-28T08:55:59.369Z,75.24
2017-10-28T08:58:26.882Z,74.45
2017-10-28T09:00:54.417Z,75.60
2017-10-28T09:03:21.930Z,73.69
2017-10-28T09:05:49.427Z,75.74
2017-10-28T09:08:16.949Z,75.48
2017-10-28T09:10:44.466Z,75.74
2017-10-28T09:13:11.977Z,76.37
2017-10-28T09:15:39.603Z,77.28
2017-10-28T09:18:07.125Z,77.14
2017-10-28T09:20:34.638Z,77.08
2017-10-28T09:23:02.131Z,76.89
2017-10-28T09:25:29.658Z,76.90
2017-10-28T09:27:57.165Z,77.99
2017-10-28T09:30:24.667Z,76.64
2017-10-28T09:32:52.177Z,75.41
2017-10-28T09:35:19.683Z,75.07
2017-10-28T09:37:47.233Z,75.10
2017-10-28T09:40:14.727Z,75.57
2017-10-28T09:42:42.235Z,74.99
2017-10-28T09:45:09.755Z,74.72
2017-10-28T09:47:37.258Z,73.61
2017-10-28T09:50:04.777Z,75.40
2017-10-28T09:52:32.287Z,74.77
2017-10-28T09:54:59.802Z,75.06
2017-10-28T09:57:27.345Z,75.44
2017-10-28T09:59:54.842Z,75.94
2017-10-28T10:02:22.367Z,73.68
2017-10-28T10:04:49.866Z,73.06
2017-10-28T10:07:17.354Z,71.32
2017-10-28T10:09:44.853Z,71.65
2017-10-28T10:12:12.350Z,71.10
2017-10-28T10:14:39.874Z,69.96
2017-10-28T10:17:07.415Z,70.57
2017-10-28T10:19:35.511Z,72.15
2017-10-28T10:22:03.004Z,71.75
2017-10-28T10:24:30.526Z,72.91
2017-10-28T10:26:58.036Z,73.55
2017-10-28T10:29:25.537Z,73.28
2017-10-28T10:31:53.050Z,73.05
2017-10-28T10:34:20.558Z,72.97
2017-10-28T10:36:48.061Z,72.50
2017-10-28T10:39:15.564Z,71.10
2017-10-28T10:41:43.116Z,68.83
2017-10-28T10:44:10.626Z,69.14
2017-10-28T10:46:38.143Z,68.28
2017-10-28T10:49:05.646Z,68.17
2017-10-28T10:51:33.148Z,67.43
2017-10-28T10:54:00.652Z,67.76
2017-10-28T10:56:28.165Z,68.16
2017-10-28T10:58:55.681Z,66.59
2017-10-28T11:01:23.183Z,63.44
2017-10-28T11:03:50.710Z,62.34
2017-10-28T11:06:18.198Z,61.27
2017-10-28T11:08:45.690Z,62.03
2017-10-28T11:11:13.185Z,62.09
2017-10-28T11:13:40.704Z,63.77
2017-10-28T11:16:08.216Z,62.59
2017-10-28T11:18:35.717Z,62.52
2017-10-28T11:21:03.213Z,61.09
2017-10-28T11:23:31.106Z,59.48
2017-10-28T11:25:58.625Z,59.04
2017-10-28T11:28:26.113Z,60.59
2017-10-28T11:30:53.642Z,59.62
2017-10-28T11:33:21.129Z,60.80
2017-10-28T11:35:48.642Z,59.19
2017-10-28T11:38:17.125Z,58.39
2017-10-28T11:40:44.643Z,59.92
2017-10-28T11:43:12.211Z,59.97
2017-10-28T11:45:39.813Z,58.70
2017-10-28T11:48:07.294Z,57.60
2017-10-28T11:50:34.809Z,56.40
2017-10-28T11:53:02.330Z,55.34
2017-10-28T11:55:29.830Z,57.05
2017-10-28T11:57:57.329Z,57.69
2017-10-28T12:00:24.838Z,58.43
2017-10-28T12:02:52.337Z,58.44
2017-10-28T12:05:19.837Z,57.21
2017-10-28T12:07:47.333Z,57.55
2017-10-28T12:10:14.867Z,57.35
2017-10-28T12:12:42.356Z,58.08
2017-10-28T12:15:09.866Z,58.87
2017-10-28T12:17:37.369Z,58.96
2017-10-28T12:20:04.877Z,58.24
2017-10-28T12:22:32.380Z,58.25
2017-10-28T12:24:59.875Z,58.24
2017-10-28T12:27:27.378Z,57.27
2017-10-28T12:29:54.871Z,57.29
2017-10-28T12:32:22.383Z,57.25
2017-10-28T12:34:49.949Z,57.39
2017-10-28T12:37:17.468Z,57.15
2017-10-28T12:39:45.009Z,57.52
2017-10-28T12:42:12.601Z,57.15
2017-10-28T12:44:40.110Z,59.27
2017-10-28T12:47:07.603Z,58.68
2017-10-28T12:49:35.136Z,58.04
2017-10-28T12:52:02.651Z,57.26
2017-10-28T12:54:30.154Z,58.39
2017-10-28T12:56:57.745Z,58.68
2017-10-28T12:59:25.262Z,58.41
2017-10-28T13:01:52.766Z,57.46
2017-10-28T13:04:20.301Z,57.64
2017-10-28T13:06:47.807Z,57.48
2017-10-28T13:09:15.320Z,57.89
2017-10-28T13:11:42.834Z,59.18
2017-10-28T13:14:10.348Z,58.04
2017-10-28T13:16:37.860Z,58.87
2017-10-28T13:19:05.371Z,58.94
2017-10-28T13:21:32.896Z,58.53
2017-10-28T13:24:00.401Z,57.63
2017-10-28T13:26:27.936Z,58.17
2017-10-28T13:28:55.443Z,58.37
2017-10-28T13:31:22.936Z,60.48
2017-10-28T13:33:50.453Z,59.69
2017-10-28T13:36:17.973Z,58.62
2017-10-28T13:38:45.474Z,59.43
2017-10-28T13:41:12.974Z,59.26
2017-10-28T13:43:40.493Z,59.60
2017-10-28T13:46:08.030Z,59.31
2017-10-28T13:48:35.525Z,58.85
2017-10-28T13:51:03.028Z,60.62
2017-10-28T13:53:30.526Z,59.54
2017-10-28T13:55:58.039Z,59.64
2017-10-28T13:58:25.561Z,60.56
2017-10-28T14:00:53.074Z,60.18
2017-10-28T14:03:20.578Z,60.99
2017-10-28T14:05:48.104Z,60.73
2017-10-28T14:08:15.634Z,60.98
2017-10-28T14:10:43.167Z,62.11
2017-10-28T14:13:10.675Z,61.45
2017-10-28T14:15:38.175Z,61.35
2017-10-28T14:18:05.678Z,61.50
2017-10-28T14:20:33.177Z,61.58
2017-10-28T14:23:00.675Z,61.18
2017-10-28T14:25:28.174Z,61.72
2017-10-28T14:27:55.699Z,60.12
2017-10-28T14:30:23.235Z,59.75
2017-10-28T14:32:50.898Z,60.18
2017-10-28T14:35:18.421Z,60.38
2017-10-28T14:37:45.924Z,60.11
2017-10-28T14:40:13.454Z,60.45
2017-10-28T14:42:40.963Z,60.04
2017-10-28T14:45:08.477Z,60.96
2017-10-28T14:47:35.991Z,59.59
2017-10-28T14:50:03.609Z,59.76
2017-10-28T14:52:31.167Z,60.69
2017-10-28T14:54:58.731Z,61.04
2017-10-28T14:57:26.262Z,62.23
2017-10-28T14:59:53.761Z,61.43
2017-10-28T15:02:21.253Z,61.35
2017-10-28T15:04:48.760Z,62.16
2017-10-28T15:07:16.289Z,62.82
2017-10-28T15:09:43.800Z,62.98
2017-10-28T15:12:11.307Z,62.71
2017-10-28T15:14:38.803Z,63.74
2017-10-28T15:17:06.344Z,63.22
2017-10-28T15:19:33.850Z,64.15
2017-10-28T15:22:01.354Z,63.58
2017-10-28T15:24:28.862Z,64.12
2017-10-28T15:26:56.385Z,64.10
2017-10-28T15:29:23.886Z,63.95
2017-10-28T15:31:51.418Z,64.93
2017-10-28T15:34:18.917Z,65.25
2017-10-28T15:36:46.430Z,64.81
2017-10-28T15:39:13.941Z,64.71
2017-10-28T15:41:41.447Z,64.67
2017-10-28T15:44:08.963Z,64.28
2017-10-28T15:46:36.479Z,64.86
2017-10-28T15:49:04.007Z,65.03
2017-10-28T15:51:31.527Z,65.96
2017-10-28T15:56:25.821Z,66.77
2017-10-28T15:58:53.331Z,66.48
2017-10-28T16:01:20.823Z,66.76
2017-10-28T16:03:48.333Z,66.44
2017-10-28T16:06:15.819Z,65.80
2017-10-28T16:08:43.320Z,66.01
2017-10-28T16:11:10.813Z,66.30
2017-10-28T16:13:38.365Z,66.03
2017-10-28T16:16:05.871Z,66.92
2017-10-28T16:18:33.366Z,67.01
2017-10-28T16:21:00.868Z,67.30
2017-10-28T16:23:28.388Z,67.42
2017-10-28T16:25:55.881Z,67.94
2017-10-28T16:28:23.388Z,67.67
2017-10-28T16:30:50.920Z,67.72
2017-10-28T16:33:18.407Z,68.21
2017-10-28T16:35:45.905Z,68.04
2017-10-28T16:38:13.431Z,67.80
2017-10-28T16:40:40.965Z,67.63
2017-10-28T16:43:08.492Z,68.08
2017-10-28T16:45:35.990Z,68.39
2017-10-28T16:48:03.486Z,68.94
2017-10-28T16:50:30.980Z,68.51
2017-10-28T16:52:58.477Z,68.41
2017-10-28T16:55:25.990Z,68.31
2017-10-28T16:57:53.509Z,68.34
2017-10-28T17:00:20.993Z,68.63
2017-10-28T17:02:48.621Z,68.46
2017-10-28T17:05:16.154Z,67.60
2017-10-28T17:07:43.689Z,68.12
2017-10-28T17:10:11.279Z,67.64
2017-10-28T17:12:38.860Z,68.05
2017-10-28T17:15:06.366Z,67.92
2017-10-28T17:17:33.885Z,68.18
2017-10-28T17:20:01.423Z,68.59
2017-10-28T17:22:28.943Z,69.56
2017-10-28T17:24:56.439Z,69.22
2017-10-28T17:27:23.931Z,69.23
2017-10-28T17:29:51.424Z,69.43
2017-10-28T17:32:18.927Z,69.43
2017-10-28T17:34:46.469Z,68.79
2017-10-28T17:37:13.986Z,69.45
2017-10-28T17:39:41.475Z,69.73
2017-10-28T17:42:09.024Z,69.27
2017-10-28T17:44:36.528Z,69.42
2017-10-28T17:47:04.077Z,68.62
2017-10-28T17:49:31.587Z,68.53
2017-10-28T17:51:59.092Z,68.55
2017-10-28T17:54:26.591Z,68.45
2017-10-28T17:56:54.957Z,68.46
2017-10-28T17:59:22.482Z,68.50
2017-10-28T18:01:50.023Z,67.70
2017-10-28T18:04:17.509Z,68.29
2017-10-28T18:06:45.019Z,67.97
2017-10-28T18:09:12.516Z,67.71
2017-10-28T18:11:40.026Z,66.97
2017-10-28T18:14:07.560Z,67.70
2017-10-28T18:16:35.092Z,67.82
2017-10-28T18:19:02.613Z,67.71
2017-10-28T18:21:30.113Z,67.12
2017-10-28T18:23:57.614Z,67.07
2017-10-28T18:26:25.125Z,67.05
2017-10-28T18:28:52.635Z,67.61
2017-10-28T18:31:20.173Z,66.56
2017-10-28T18:33:47.681Z,66.93
2017-10-28T18:36:15.209Z,67.04
2017-10-28T18:38:42.732Z,66.52
2017-10-28T18:41:10.229Z,67.28
2017-10-28T18:43:38.099Z,67.25
2017-10-28T18:46:05.641Z,66.32
2017-10-28T18:48:33.153Z,67.61
2017-10-28T18:51:00.639Z,67.53
2017-10-28T18:53:28.135Z,68.03
2017-10-28T18:55:55.663Z,66.20
2017-10-28T18:58:23.234Z,66.43
2017-10-28T19:00:50.743Z,66.50
2017-10-28T19:03:18.289Z,66.31
2017-10-28T19:05:45.786Z,65.82
2017-10-28T19:08:13.278Z,65.49
2017-10-28T19:10:40.802Z,65.90
2017-10-28T19:13:08.361Z,66.41
2017-10-28T19:15:35.881Z,66.78
2017-10-28T19:18:03.427Z,67.05
2017-10-28T19:20:30.920Z,67.11
2017-10-28T19:22:58.425Z,67.62
2017-10-28T19:25:25.940Z,68.72
2017-10-28T19:27:53.445Z,68.40
2017-10-28T19:30:20.970Z,66.32
2017-10-28T19:32:48.480Z,66.44
2017-10-28T19:35:16.032Z,65.84
2017-10-28T19:37:43.544Z,65.31
2017-10-28T19:40:11.049Z,65.47
2017-10-28T19:42:38.613Z,65.09
2017-10-28T19:45:06.210Z,65.83
2017-10-28T19:47:33.723Z,65.11
2017-10-28T19:50:01.294Z,65.29
2017-10-28T19:52:28.819Z,65.24
2017-10-28T19:54:56.367Z,66.42
2017-10-28T19:57:23.912Z,65.87
2017-10-28T19:59:51.433Z,66.04
2017-10-28T20:02:19.045Z,67.00
2017-10-28T20:04:46.606Z,65.43
2017-10-28T20:07:14.127Z,65.99
2017-10-28T20:09:41.669Z,65.81
2017-10-28T20:12:09.181Z,65.92
2017-10-28T20:14:36.772Z,66.24
2017-10-28T20:17:04.311Z,66.39
2017-10-28T20:19:31.860Z,66.42
2017-10-28T20:21:59.392Z,65.73
2017-10-28T20:24:26.933Z,66.07
2017-10-28T20:26:54.473Z,65.93
2017-10-28T20:29:22.020Z,65.83
2017-10-28T20:31:49.581Z,65.96
2017-10-28T20:34:17.152Z,65.46
2017-10-28T20:36:44.722Z,65.85
2017-10-28T20:39:12.281Z,65.33
2017-10-28T20:41:39.819Z,66.25
2017-10-28T20:44:07.348Z,67.21
2017-10-28T20:46:34.890Z,67.96
2017-10-28T20:49:02.431Z,68.71
2017-10-28T20:51:30.011Z,68.66
2017-10-28T20:53:57.559Z,69.32
2017-10-28T20:56:25.166Z,69.96
2017-10-28T20:58:52.691Z,69.28
2017-10-28T21:01:20.213Z,68.97
2017-10-28T21:03:47.733Z,69.78
2017-10-28T21:06:15.288Z,68.98
2017-10-28T21:08:42.802Z,69.11
2017-10-28T21:11:10.334Z,69.35
2017-10-28T21:13:37.852Z,68.83
2017-10-28T21:16:05.363Z,68.85
2017-10-28T21:18:32.899Z,68.10
2017-10-28T21:21:00.461Z,68.13
2017-10-28T21:23:27.986Z,68.04
2017-10-28T21:25:55.534Z,67.67
2017-10-28T21:28:23.068Z,68.29
2017-10-28T21:30:50.619Z,68.00
2017-10-28T21:33:18.213Z,67.80
2017-10-28T21:35:45.708Z,67.75
2017-10-28T21:38:13.252Z,67.56
2017-10-28T21:40:40.765Z,67.66
2017-10-28T21:43:08.306Z,67.55
2017-10-28T21:45:35.844Z,67.59
2017-10-28T21:48:03.366Z,67.52
2017-10-28T21:50:30.901Z,68.45
2017-10-28T21:52:58.432Z,68.00
2017-10-28T21:55:25.979Z,68.41
2017-10-28T21:57:53.480Z,67.58
2017-10-28T22:00:20.989Z,68.06
2017-10-28T22:02:48.478Z,67.50
2017-10-28T22:05:15.973Z,68.19
2017-10-28T22:07:43.487Z,68.39
2017-10-28T22:10:11.004Z,68.45
2017-10-28T22:12:38.502Z,68.04
2017-10-28T22:15:06.122Z,67.91
2017-10-28T22:17:33.652Z,67.62
2017-10-28T22:20:01.146Z,67.94
2017-10-28T22:22:28.661Z,67.95
2017-10-28T22:24:56.161Z,68.35
2017-10-28T22:27:23.655Z,68.51
2017-10-28T22:29:51.153Z,68.21
2017-10-28T22:32:18.672Z,68.33
2017-10-28T22:34:46.181Z,68.31
2017-10-28T22:37:13.657Z,68.59
2017-10-28T22:39:41.161Z,68.16
2017-10-28T22:42:08.682Z,68.88
2017-10-28T22:44:36.169Z,68.72
2017-10-28T22:47:03.667Z,69.13
2017-10-28T22:49:31.207Z,69.27
2017-10-28T22:51:58.720Z,69.48
2017-10-28T22:54:26.225Z,69.40
2017-10-28T22:56:53.734Z,69.85
2017-10-28T22:59:21.226Z,70.03
2017-10-28T23:01:48.738Z,70.14
2017-10-28T23:04:16.245Z,70.13
2017-10-28T23:06:43.729Z,70.71
2017-10-28T23:09:11.243Z,70.76
2017-10-28T23:11:38.772Z,70.72
2017-10-28T23:14:06.277Z,70.86
2017-10-28T23:16:33.791Z,70.50
2017-10-28T23:19:01.291Z,71.01
2017-10-28T23:21:28.810Z,71.03
2017-10-28T23:23:56.305Z,71.34
2017-10-28T23:26:23.801Z,70.86
2017-10-28T23:28:51.289Z,70.92
2017-10-28T23:31:18.773Z,71.05
2017-10-28T23:33:46.253Z,71.20
2017-10-28T23:36:13.741Z,71.90
2017-10-28T23:38:41.232Z,71.79
2017-10-28T23:41:08.721Z,72.21
2017-10-28T23:43:36.216Z,71.94
2017-10-28T23:46:03.706Z,72.30
2017-10-28T23:48:31.235Z,72.22
2017-10-28T23:50:58.744Z,73.01
2017-10-28T23:53:26.229Z,72.92
2017-10-28T23:55:53.708Z,73.21
2017-10-28T23:58:21.190Z,73.29
